createdAt,value
2018-11-10T00:01:12.818Z,33.70
2018-11-10T00:03:41.532Z,35.20
2018-11-10T00:06:09.813Z,36.33
2018-11-10T00:08:38.095Z,32.53
2018-11-10T00:11:06.706Z,35.20
2018-11-10T00:13:35.186Z,34.40
2018-11-10T00:16:03.698Z,32.87
2018-11-10T00:18:32.045Z,31.23
2018-11-10T00:21:00.243Z,34.20
2018-11-10T00:23:28.463Z,34.23
2018-11-10T00:25:56.643Z,39.73
2018-11-10T00:28:24.905Z,37.37
2018-11-10T00:30:53.304Z,38.90
2018-11-10T00:33:22.088Z,37.37
2018-11-10T00:35:50.389Z,39.47
2018-11-10T00:38:18.612Z,38.37
2018-11-10T00:40:46.853Z,34.23
2018-11-10T00:43:15.183Z,36.30
2018-11-10T00:45:43.623Z,37.17
2018-11-10T00:48:12.015Z,37.53
2018-11-10T00:50:40.485Z,38.30
2018-11-10T00:53:08.833Z,37.37
2018-11-10T00:55:37.130Z,35.33
2018-11-10T00:58:05.524Z,33.27
2018-11-10T01:00:34.346Z,34.70
2018-11-10T01:03:02.705Z,36.67
2018-11-10T01:05:31.295Z,36.30
2018-11-10T01:07:59.678Z,38.13
2018-11-10T01:10:27.867Z,41.40
2018-11-10T01:12:57.026Z,39.87
2018-11-10T01:15:26.001Z,42.40
2018-11-10T01:17:54.739Z,40.57
2018-11-10T01:20:23.509Z,39.70
2018-11-10T01:22:52.816Z,40.10
2018-11-10T01:25:21.739Z,40.00
2018-11-10T01:27:50.162Z,38.53
2018-11-10T01:30:18.368Z,51.57
2018-11-10T01:32:46.729Z,37.37
2018-11-10T01:35:17.485Z,35.37
2018-11-10T01:37:46.528Z,32.00
2018-11-10T01:40:15.482Z,37.27
2018-11-10T01:42:44.681Z,34.87
2018-11-10T01:45:15.531Z,33.40
2018-11-10T01:47:44.165Z,30.67
2018-11-10T01:50:13.617Z,31.63
2018-11-10T01:52:42.897Z,34.67
2018-11-10T01:55:11.587Z,36.40
2018-11-10T01:57:40.603Z,34.33
2018-11-10T02:00:14.266Z,35.10
2018-11-10T02:02:43.783Z,35.33
2018-11-10T02:05:12.122Z,35.17
2018-11-10T02:07:40.351Z,31.47
2018-11-10T02:10:10.395Z,31.53
2018-11-10T02:12:38.712Z,33.13
2018-11-10T02:15:10.347Z,36.47
2018-11-10T02:17:38.802Z,40.10
2018-11-10T02:20:08.728Z,42.37
2018-11-10T02:22:37.072Z,42.47
2018-11-10T02:25:07.127Z,38.23
2018-11-10T02:27:35.649Z,37.03
2018-11-10T02:30:04.511Z,34.83
2018-11-10T02:32:33.544Z,37.87
2018-11-10T02:35:02.325Z,34.93
2018-11-10T02:37:30.478Z,34.93
2018-11-10T02:39:58.633Z,34.93
2018-11-10T02:42:26.961Z,32.13
2018-11-10T02:44:55.035Z,32.90
2018-11-10T02:47:23.118Z,32.07
2018-11-10T02:49:51.337Z,33.10
2018-11-10T02:52:19.482Z,30.97
2018-11-10T02:54:47.618Z,31.83
2018-11-10T02:57:15.862Z,31.57
2018-11-10T02:59:43.964Z,33.70
2018-11-10T03:02:12.234Z,33.30
2018-11-10T03:04:40.307Z,34.37
2018-11-10T03:07:08.413Z,34.57
2018-11-10T03:09:36.551Z,32.77
2018-11-10T03:12:05.380Z,31.43
2018-11-10T03:14:33.501Z,32.87
2018-11-10T03:17:01.753Z,34.57
2018-11-10T03:19:29.863Z,33.10
2018-11-10T03:21:57.957Z,33.87
2018-11-10T03:24:26.028Z,34.03
2018-11-10T03:26:54.252Z,35.93
2018-11-10T03:29:22.339Z,35.27
2018-11-10T03:31:50.919Z,35.27
2018-11-10T03:34:19.071Z,34.47
2018-11-10T03:36:47.379Z,33.47
2018-11-10T03:39:15.555Z,34.33
2018-11-10T03:41:43.834Z,29.20
2018-11-10T03:44:12.182Z,29.80
2018-11-10T03:46:40.521Z,30.47
2018-11-10T03:49:08.718Z,31.23
2018-11-10T03:51:36.921Z,30.33
2018-11-10T03:54:06.367Z,29.37
2018-11-10T03:56:34.504Z,31.03
2018-11-10T03:59:03.164Z,29.77
2018-11-10T04:01:31.315Z,29.47
2018-11-10T04:03:59.582Z,28.60
2018-11-10T04:06:27.801Z,28.13
2018-11-10T04:08:56.131Z,28.07
2018-11-10T04:11:24.491Z,28.20
2018-11-10T04:13:52.879Z,28.00
2018-11-10T04:16:20.998Z,28.47
2018-11-10T04:18:49.199Z,28.07
2018-11-10T04:21:17.479Z,27.10
2018-11-10T04:23:45.983Z,29.13
2018-11-10T04:26:14.245Z,30.30
2018-11-10T04:28:42.619Z,29.83
2018-11-10T04:31:11.101Z,27.53
2018-11-10T04:33:39.355Z,28.10
2018-11-10T04:36:07.680Z,26.00
2018-11-10T04:38:35.945Z,27.77
2018-11-10T04:41:04.808Z,29.03
2018-11-10T04:43:33.422Z,27.90
2018-11-10T04:46:01.668Z,28.13
2018-11-10T04:48:29.874Z,27.47
2018-11-10T04:50:58.318Z,24.43
2018-11-10T04:53:26.570Z,26.87
2018-11-10T04:55:54.734Z,25.97
2018-11-10T04:58:23.035Z,26.23
2018-11-10T05:00:51.375Z,26.13
2018-11-10T05:03:19.701Z,24.93
2018-11-10T05:05:47.885Z,24.80
2018-11-10T05:08:16.025Z,26.97
2018-11-10T05:10:44.497Z,23.87
2018-11-10T05:13:12.856Z,24.83
2018-11-10T05:15:41.204Z,25.77
2018-11-10T05:18:09.364Z,25.23
2018-11-10T05:20:37.624Z,24.63
2018-11-10T05:23:06.012Z,23.33
2018-11-10T05:25:34.222Z,25.27
2018-11-10T05:28:02.495Z,24.03
2018-11-10T05:30:30.737Z,24.40
2018-11-10T05:32:59.220Z,23.03
2018-11-10T05:35:27.761Z,22.63
2018-11-10T05:37:55.973Z,23.23
2018-11-10T05:40:24.217Z,22.43
2018-11-10T05:42:52.486Z,22.33
2018-11-10T05:45:20.754Z,23.67
2018-11-10T05:47:49.060Z,21.67
2018-11-10T05:50:17.191Z,23.17
2018-11-10T05:52:45.332Z,23.43
2018-11-10T05:55:13.655Z,21.53
2018-11-10T05:57:41.980Z,23.43
2018-11-10T06:00:11.820Z,22.37
2018-11-10T06:02:40.304Z,22.33
2018-11-10T06:05:09.008Z,23.13
2018-11-10T06:07:37.708Z,22.30
2018-11-10T06:10:07.704Z,22.03
2018-11-10T06:12:36.131Z,22.93
2018-11-10T06:15:05.717Z,21.10
2018-11-10T06:17:33.956Z,22.17
2018-11-10T06:20:02.776Z,23.00
2018-11-10T06:22:31.093Z,24.33
2018-11-10T06:24:59.577Z,24.13
2018-11-10T06:27:28.001Z,22.83
2018-11-10T06:29:56.146Z,21.63
2018-11-10T06:32:24.475Z,19.87
2018-11-10T06:34:52.876Z,21.67
2018-11-10T06:37:21.027Z,21.43
2018-11-10T06:39:49.170Z,19.87
2018-11-10T06:42:17.342Z,20.13
2018-11-10T06:44:45.585Z,19.80
2018-11-10T06:47:14.228Z,20.10
2018-11-10T06:49:42.423Z,20.13
2018-11-10T06:52:10.551Z,20.43
2018-11-10T06:54:38.731Z,22.30
2018-11-10T06:57:07.019Z,21.20
2018-11-10T06:59:35.436Z,20.77
2018-11-10T07:02:03.573Z,21.00
2018-11-10T07:04:32.212Z,20.17
2018-11-10T07:07:00.572Z,21.47
2018-11-10T07:09:28.910Z,19.87
2018-11-10T07:11:57.447Z,20.90
2018-11-10T07:14:25.532Z,20.03
2018-11-10T07:16:54.017Z,19.10
2018-11-10T07:21:58.703Z,19.33
2018-11-10T07:24:27.201Z,18.93
2018-11-10T07:26:55.387Z,18.80
2018-11-10T07:29:23.683Z,17.70
2018-11-10T07:31:52.486Z,18.50
2018-11-10T07:34:21.379Z,17.97
2018-11-10T07:36:49.938Z,19.90
2018-11-10T07:39:18.491Z,18.13
2018-11-10T07:41:47.089Z,17.87
2018-11-10T07:44:15.623Z,19.77
2018-11-10T07:46:43.966Z,18.33
2018-11-10T07:49:12.661Z,17.97
2018-11-10T07:51:41.301Z,18.67
2018-11-10T07:54:10.023Z,19.20
2018-11-10T07:56:38.536Z,17.53
2018-11-10T07:59:11.200Z,18.07
2018-11-10T08:01:39.906Z,17.97
2018-11-10T08:04:08.191Z,18.47
2018-11-10T08:06:36.400Z,18.60
2018-11-10T08:09:08.525Z,18.30
2018-11-10T08:11:37.556Z,18.47
2018-11-10T08:14:06.711Z,18.37
2018-11-10T08:16:35.165Z,18.93
2018-11-10T08:19:03.354Z,18.40
2018-11-10T08:21:31.984Z,18.47
2018-11-10T08:24:01.116Z,17.07
2018-11-10T08:26:29.768Z,16.80
2018-11-10T08:28:58.275Z,16.37
2018-11-10T08:31:26.833Z,17.00
2018-11-10T08:33:55.102Z,15.50
2018-11-10T08:36:23.942Z,15.80
2018-11-10T08:38:52.610Z,15.37
2018-11-10T08:41:20.941Z,17.33
2018-11-10T08:43:49.151Z,16.67
2018-11-10T08:46:18.155Z,17.23
2018-11-10T08:48:46.946Z,17.07
2018-11-10T08:51:15.645Z,17.90
2018-11-10T08:53:45.087Z,16.50
2018-11-10T08:56:15.620Z,16.77
2018-11-10T08:58:43.962Z,17.17
2018-11-10T09:01:12.335Z,16.40
2018-11-10T09:03:40.677Z,15.90
2018-11-10T09:06:09.516Z,16.53
2018-11-10T09:08:37.860Z,16.10
2018-11-10T09:11:06.106Z,14.63
2018-11-10T09:13:34.379Z,15.47
2018-11-10T09:16:03.092Z,14.57
2018-11-10T09:18:31.448Z,14.70
2018-11-10T09:20:59.947Z,15.87
2018-11-10T09:23:29.162Z,14.70
2018-11-10T09:25:58.039Z,15.07
2018-11-10T09:28:26.333Z,15.47
2018-11-10T09:30:55.135Z,14.40
2018-11-10T09:33:23.362Z,15.23
2018-11-10T09:35:51.722Z,13.77
2018-11-10T09:38:19.995Z,14.20
2018-11-10T09:40:48.236Z,13.90
2018-11-10T09:43:16.569Z,13.93
2018-11-10T09:45:45.103Z,13.57
2018-11-10T09:48:13.280Z,14.43
2018-11-10T09:50:41.466Z,14.10
2018-11-10T09:53:10.289Z,13.87
2018-11-10T09:55:38.564Z,14.07
2018-11-10T09:58:06.976Z,12.27
2018-11-10T10:00:35.442Z,12.47
2018-11-10T10:03:03.747Z,12.30
2018-11-10T10:05:32.058Z,11.53
2018-11-10T10:08:00.489Z,11.07
2018-11-10T10:10:28.722Z,10.53
2018-11-10T10:12:57.043Z,11.33
2018-11-10T10:15:25.224Z,11.03
2018-11-10T10:17:53.609Z,10.53
2018-11-10T10:20:22.207Z,10.60
2018-11-10T10:22:50.677Z,10.00
2018-11-10T10:25:19.553Z,10.20
2018-11-10T10:27:48.599Z,10.70
2018-11-10T10:30:19.514Z,10.70
2018-11-10T10:32:48.281Z,9.90
2018-11-10T10:35:16.888Z,9.90
2018-11-10T10:37:47.660Z,10.83
2018-11-10T10:40:16.250Z,9.97
2018-11-10T10:42:45.136Z,10.77
2018-11-10T10:45:18.043Z,10.23
2018-11-10T10:47:46.421Z,10.13
2018-11-10T10:50:16.043Z,10.17
2018-11-10T10:52:45.089Z,10.13
2018-11-10T10:55:15.425Z,10.43
2018-11-10T10:57:45.115Z,10.23
2018-11-10T11:00:20.531Z,10.47
2018-11-10T11:03:57.373Z,10.83
2018-11-10T11:06:25.660Z,10.30
2018-11-10T11:08:54.005Z,10.63
2018-11-10T11:11:22.258Z,9.90
2018-11-10T11:13:50.581Z,10.63
2018-11-10T11:16:18.980Z,10.33
2018-11-10T11:18:47.251Z,10.77
2018-11-10T11:21:15.405Z,9.60
2018-11-10T11:23:43.864Z,9.20
2018-11-10T11:26:12.214Z,9.60
2018-11-10T11:28:41.050Z,9.80
2018-11-10T11:31:11.071Z,9.70
2018-11-10T11:33:39.188Z,9.50
2018-11-10T11:36:07.450Z,9.77
2018-11-10T11:38:35.861Z,9.30
2018-11-10T11:41:04.381Z,9.13
2018-11-10T11:43:33.799Z,9.23
2018-11-10T11:46:02.819Z,9.27
2018-11-10T11:48:31.235Z,9.73
2018-11-10T11:50:59.597Z,9.90
2018-11-10T11:53:27.995Z,9.20
2018-11-10T11:55:56.338Z,9.13
2018-11-10T11:58:24.942Z,8.57
2018-11-10T12:00:54.029Z,9.53
2018-11-10T12:03:22.365Z,9.67
2018-11-10T12:05:50.845Z,9.23
2018-11-10T12:08:19.438Z,10.03
2018-11-10T12:10:47.609Z,10.43
2018-11-10T12:13:16.247Z,10.10
2018-11-10T12:15:44.783Z,10.43
2018-11-10T12:18:13.121Z,10.57
2018-11-10T12:20:41.506Z,9.63
2018-11-10T12:23:09.914Z,10.03
2018-11-10T12:25:38.449Z,9.50
2018-11-10T12:28:07.938Z,9.43
2018-11-10T12:30:37.240Z,9.27
2018-11-10T12:33:06.074Z,9.50
2018-11-10T12:35:35.487Z,9.00
2018-11-10T12:38:03.806Z,9.07
2018-11-10T12:40:32.556Z,8.80
2018-11-10T12:43:01.047Z,8.10
2018-11-10T12:45:29.360Z,8.53
2018-11-10T12:47:58.283Z,8.63
2018-11-10T12:50:28.793Z,8.70
2018-11-10T12:52:57.295Z,8.37
2018-11-10T12:55:26.339Z,8.47
2018-11-10T12:57:54.823Z,8.90
2018-11-10T13:00:23.223Z,8.90
2018-11-10T13:02:51.538Z,9.57
2018-11-10T13:05:19.777Z,9.60
2018-11-10T13:07:48.159Z,8.23
2018-11-10T13:10:16.432Z,8.33
2018-11-10T13:12:51.888Z,8.90
2018-11-10T13:15:20.329Z,8.43
2018-11-10T13:17:48.671Z,8.43
2018-11-10T13:20:16.824Z,7.90
2018-11-10T13:22:45.113Z,7.67
2018-11-10T13:25:14.085Z,7.43
2018-11-10T13:27:42.412Z,7.10
2018-11-10T13:30:12.539Z,6.47
2018-11-10T13:32:40.754Z,7.17
2018-11-10T13:35:09.728Z,6.87
2018-11-10T13:37:38.442Z,6.63
2018-11-10T13:40:07.751Z,6.87
2018-11-10T13:42:35.987Z,6.63
2018-11-10T13:45:05.601Z,7.20
2018-11-10T13:47:33.936Z,6.60
2018-11-10T13:50:02.543Z,6.87
2018-11-10T13:52:31.103Z,6.77
2018-11-10T13:54:59.251Z,7.83
2018-11-10T13:57:28.248Z,7.30
2018-11-10T13:59:56.605Z,15.30
2018-11-10T14:02:24.936Z,7.87
2018-11-10T14:04:53.235Z,7.27
2018-11-10T14:07:21.564Z,8.27
2018-11-10T14:09:49.795Z,7.83
2018-11-10T14:12:17.976Z,8.07
2018-11-10T14:14:46.057Z,8.33
2018-11-10T14:17:14.285Z,8.23
2018-11-10T14:19:42.343Z,8.17
2018-11-10T14:22:10.404Z,8.40
2018-11-10T14:24:38.658Z,8.97
2018-11-10T14:27:06.949Z,9.10
2018-11-10T14:29:35.037Z,7.77
2018-11-10T14:32:03.482Z,9.53
2018-11-10T14:34:31.633Z,12.90
2018-11-10T14:36:59.875Z,11.33
2018-11-10T14:39:28.142Z,10.40
2018-11-10T14:41:56.234Z,8.73
2018-11-10T14:44:24.414Z,9.10
2018-11-10T14:46:52.708Z,8.73
2018-11-10T14:49:20.919Z,8.27
2018-11-10T14:51:49.124Z,8.03
2018-11-10T14:54:17.495Z,7.40
2018-11-10T14:56:45.666Z,7.30
2018-11-10T14:59:20.834Z,9.13
2018-11-10T15:01:49.008Z,9.00
2018-11-10T15:04:17.217Z,8.53
2018-11-10T15:06:45.351Z,9.43
2018-11-10T15:09:13.809Z,8.60
2018-11-10T15:11:42.010Z,8.27
2018-11-10T15:14:10.172Z,8.47
2018-11-10T15:16:38.480Z,8.70
2018-11-10T15:19:07.154Z,8.47
2018-11-10T15:21:35.608Z,8.30
2018-11-10T15:24:03.849Z,7.20
2018-11-10T15:26:32.141Z,7.40
2018-11-10T15:29:00.777Z,8.47
2018-11-10T15:31:29.229Z,9.73
2018-11-10T15:33:57.493Z,10.07
2018-11-10T15:36:25.634Z,9.47
2018-11-10T15:38:53.933Z,8.67
2018-11-10T15:41:22.082Z,9.70
2018-11-10T15:43:50.266Z,56.93
2018-11-10T15:46:18.617Z,17.37
2018-11-10T15:48:46.786Z,21.07
2018-11-10T15:51:14.978Z,17.63
2018-11-10T15:53:43.130Z,11.53
2018-11-10T15:56:11.155Z,11.53
2018-11-10T15:58:39.253Z,12.57
2018-11-10T16:01:07.375Z,12.30
2018-11-10T16:03:35.646Z,12.77
2018-11-10T16:06:04.024Z,13.37
2018-11-10T16:08:32.111Z,14.43
2018-11-10T16:11:00.576Z,13.20
2018-11-10T16:13:28.810Z,12.50
2018-11-10T16:15:56.916Z,11.47
2018-11-10T16:18:24.995Z,11.67
2018-11-10T16:20:53.271Z,12.30
2018-11-10T16:23:21.384Z,14.70
2018-11-10T16:25:49.826Z,13.10
2018-11-10T16:28:18.018Z,12.17
2018-11-10T16:30:46.277Z,11.80
2018-11-10T16:33:14.721Z,12.27
2018-11-10T16:35:42.896Z,10.70
2018-11-10T16:38:11.070Z,10.53
2018-11-10T16:40:39.434Z,11.93
2018-11-10T16:43:07.733Z,11.07
2018-11-10T16:45:36.034Z,10.87
2018-11-10T16:48:04.641Z,11.83
2018-11-10T16:50:32.979Z,12.00
2018-11-10T16:53:01.185Z,12.73
2018-11-10T16:55:30.318Z,12.20
2018-11-10T16:57:58.601Z,12.23
2018-11-10T17:00:26.915Z,13.27
2018-11-10T17:02:55.454Z,13.00
2018-11-10T17:05:24.745Z,13.50
2018-11-10T17:07:53.179Z,13.47
2018-11-10T17:10:21.352Z,13.03
2018-11-10T17:12:50.028Z,13.20
2018-11-10T17:15:18.358Z,14.30
2018-11-10T17:17:48.337Z,14.30
2018-11-10T17:20:17.396Z,13.70
2018-11-10T17:22:45.888Z,14.47
2018-11-10T17:25:15.047Z,14.57
2018-11-10T17:27:44.036Z,14.20
2018-11-10T17:30:15.665Z,26.87
2018-11-10T17:32:43.997Z,15.20
2018-11-10T17:35:12.873Z,14.00
2018-11-10T17:37:41.247Z,13.43
2018-11-10T17:40:10.549Z,15.93
2018-11-10T17:42:38.857Z,17.30
2018-11-10T17:45:09.475Z,18.77
2018-11-10T17:47:37.721Z,19.17
2018-11-10T17:50:08.090Z,19.97
2018-11-10T17:52:36.828Z,16.03
2018-11-10T17:55:05.858Z,14.40
2018-11-10T17:57:34.118Z,15.43
2018-11-10T18:00:02.603Z,14.07
2018-11-10T18:02:31.197Z,13.63
2018-11-10T18:04:59.635Z,13.73
2018-11-10T18:07:27.938Z,14.57
2018-11-10T18:09:56.198Z,15.27
2018-11-10T18:12:24.490Z,15.40
2018-11-10T18:14:52.617Z,14.67
2018-11-10T18:17:20.755Z,16.07
2018-11-10T18:19:49.266Z,15.77
2018-11-10T18:22:17.983Z,14.07
2018-11-10T18:24:46.311Z,14.57
2018-11-10T18:27:14.728Z,16.17
2018-11-10T18:29:43.367Z,14.40
2018-11-10T18:32:11.659Z,14.93
2018-11-10T18:34:39.996Z,15.80
2018-11-10T18:37:15.400Z,15.07
2018-11-10T18:39:44.066Z,17.00
2018-11-10T18:42:12.225Z,13.67
2018-11-10T18:45:09.447Z,13.13
2018-11-10T18:47:38.704Z,14.13
2018-11-10T18:50:09.638Z,12.73
2018-11-10T18:52:39.441Z,13.53
2018-11-10T18:55:08.018Z,12.90
2018-11-10T18:57:36.659Z,13.17
2018-11-10T19:00:07.309Z,13.07
2018-11-10T19:02:35.571Z,12.10
2018-11-10T19:05:04.088Z,11.53
2018-11-10T19:07:32.458Z,12.77
2018-11-10T19:10:00.835Z,12.00
2018-11-10T19:12:29.143Z,11.33
2018-11-10T19:14:57.371Z,12.60
2018-11-10T19:17:25.560Z,11.83
2018-11-10T19:19:55.375Z,12.17
2018-11-10T19:22:24.308Z,13.17
2018-11-10T19:24:53.051Z,12.73
2018-11-10T19:27:21.599Z,12.43
2018-11-10T19:29:49.807Z,12.50
2018-11-10T19:32:18.197Z,12.53
2018-11-10T19:34:46.519Z,13.33
2018-11-10T19:37:16.682Z,13.40
2018-11-10T19:39:44.995Z,12.97
2018-11-10T19:42:13.448Z,13.77
2018-11-10T19:44:41.945Z,14.00
2018-11-10T19:47:10.741Z,13.53
2018-11-10T19:49:39.581Z,14.27
2018-11-10T19:52:08.335Z,12.80
2018-11-10T19:54:36.505Z,13.70
2018-11-10T19:57:05.025Z,12.60
2018-11-10T19:59:33.387Z,13.37
2018-11-10T20:02:02.143Z,13.70
2018-11-10T20:04:30.345Z,13.37
2018-11-10T20:06:58.521Z,13.77
2018-11-10T20:09:27.507Z,13.60
2018-11-10T20:11:56.792Z,13.03
2018-11-10T20:14:25.082Z,14.03
2018-11-10T20:16:53.640Z,13.40
2018-11-10T20:19:22.134Z,13.73
2018-11-10T20:21:50.478Z,13.83
2018-11-10T20:24:18.875Z,14.07
2018-11-10T20:26:47.131Z,13.50
2018-11-10T20:29:15.395Z,14.10
2018-11-10T20:31:43.650Z,14.17
2018-11-10T20:34:11.959Z,14.93
2018-11-10T20:36:40.739Z,14.77
2018-11-10T20:39:09.803Z,13.90
2018-11-10T20:41:38.504Z,13.43
2018-11-10T20:44:07.563Z,13.37
2018-11-10T20:46:36.341Z,14.73
2018-11-10T20:49:04.813Z,13.97
2018-11-10T20:51:32.994Z,13.77
2018-11-10T20:54:01.180Z,14.30
2018-11-10T20:57:58.868Z,14.27
2018-11-10T21:00:27.284Z,13.93
2018-11-10T21:02:55.465Z,14.60
2018-11-10T21:05:23.681Z,13.90
2018-11-10T21:07:51.869Z,13.97
2018-11-10T21:10:20.733Z,12.40
2018-11-10T21:12:49.627Z,12.30
2018-11-10T21:15:18.930Z,13.07
2018-11-10T21:17:47.379Z,12.87
2018-11-10T21:20:15.841Z,12.70
2018-11-10T21:22:44.498Z,13.57
2018-11-10T21:25:14.904Z,13.63
2018-11-10T21:27:43.638Z,13.53
2018-11-10T21:30:13.476Z,13.10
2018-11-10T21:32:42.437Z,13.37
2018-11-10T21:35:10.815Z,13.43
2018-11-10T21:37:39.159Z,12.50
2018-11-10T21:40:11.244Z,13.97
2018-11-10T21:42:39.759Z,13.73
2018-11-10T21:45:09.608Z,13.27
2018-11-10T21:47:42.552Z,13.37
2018-11-10T21:50:13.269Z,13.30
2018-11-10T21:52:42.568Z,13.47
2018-11-10T21:55:12.700Z,13.50
2018-11-10T21:57:41.896Z,13.23
2018-11-10T22:00:13.791Z,13.77
2018-11-10T22:02:42.765Z,13.60
2018-11-10T22:05:11.445Z,12.90
2018-11-10T22:07:39.877Z,13.20
2018-11-10T22:10:10.707Z,12.73
2018-11-10T22:12:39.573Z,13.30
2018-11-10T22:15:11.338Z,13.77
2018-11-10T22:17:39.887Z,13.47
2018-11-10T22:20:10.086Z,13.50
2018-11-10T22:22:39.019Z,13.83
2018-11-10T22:25:08.362Z,14.93
2018-11-10T22:27:37.340Z,13.60
2018-11-10T22:30:07.135Z,14.57
2018-11-10T22:32:35.923Z,13.57
2018-11-10T22:35:04.981Z,13.33
2018-11-10T22:37:33.558Z,14.17
2018-11-10T22:40:01.747Z,12.73
2018-11-10T22:42:30.152Z,13.20
2018-11-10T22:44:58.772Z,13.40
2018-11-10T22:47:27.124Z,13.23
2018-11-10T22:49:55.229Z,14.27
2018-11-10T22:52:23.405Z,13.20
2018-11-10T22:54:51.529Z,13.97
2018-11-10T22:57:19.684Z,14.10
2018-11-10T22:59:48.260Z,12.50
2018-11-10T23:02:16.790Z,13.07
2018-11-10T23:04:45.125Z,12.97
2018-11-10T23:07:13.781Z,12.43
2018-11-10T23:09:42.313Z,12.20
2018-11-10T23:12:10.506Z,12.67
2018-11-10T23:14:39.029Z,12.87
2018-11-10T23:17:07.365Z,12.50
2018-11-10T23:19:35.634Z,11.80
2018-11-10T23:22:04.118Z,12.57
2018-11-10T23:24:32.547Z,11.03
2018-11-10T23:27:00.825Z,11.90
2018-11-10T23:29:29.323Z,11.57
2018-11-10T23:31:57.644Z,11.83
2018-11-10T23:34:26.199Z,11.80
2018-11-10T23:36:55.176Z,12.23
2018-11-10T23:39:23.460Z,12.60
2018-11-10T23:41:51.831Z,12.23
2018-11-10T23:44:20.437Z,12.30
2018-11-10T23:46:48.556Z,12.37
2018-11-10T23:49:16.889Z,11.63
2018-11-10T23:51:45.471Z,11.80
2018-11-10T23:54:13.828Z,11.83
2018-11-10T23:56:42.254Z,12.07
2018-11-10T23:59:10.671Z,11.60
